Time;durP1;ratioP1;P1;durP2;ratioP2;P2;SDS_P1;SDS_P2;PMS_P1;PMS_P2;Temp;Humidity;BMP_temperature;BMP_pressure;BME280_temperature;BME280_humidity;BME280_pressure;Samples;Min_cycle;Max_cycle;Signal;HPM_P1;HPM_P2
2022/10/12 00:01:18;;;;;;;7.50;3.50;;;11.30;55.20;;;;;;5000861;28;20053;-44
2022/10/12 00:03:45;;;;;;;8.63;3.88;;;11.30;55.20;;;;;;5004211;28;20053;-41
2022/10/12 00:06:14;;;;;;;10.20;4.00;;;11.30;55.20;;;;;;5002841;28;20061;-39
2022/10/12 00:08:43;;;;;;;9.95;4.13;;;11.30;55.30;;;;;;5001588;28;20064;-42
2022/10/12 00:11:14;;;;;;;7.60;3.17;;;11.30;55.30;;;;;;5003442;28;20057;-42
2022/10/12 00:13:41;;;;;;;8.05;3.90;;;11.30;55.30;;;;;;5003817;28;20493;-41
2022/10/12 00:16:11;;;;;;;9.20;3.88;;;11.30;55.30;;;;;;5000468;28;20054;-40
2022/10/12 00:18:38;;;;;;;9.55;4.15;;;11.20;55.30;;;;;;5002069;28;20061;-43
2022/10/12 00:21:08;;;;;;;6.25;3.58;;;11.20;55.30;;;;;;5002500;28;20053;-43
2022/10/12 00:23:37;;;;;;;7.22;3.38;;;11.20;55.30;;;;;;5002687;28;20046;-42
2022/10/12 00:26:06;;;;;;;7.78;3.58;;;11.20;55.40;;;;;;5004138;28;20054;-46
2022/10/12 00:28:35;;;;;;;10.23;3.70;;;11.20;55.40;;;;;;5002777;28;20057;-42
2022/10/12 00:31:07;;;;;;;10.85;4.10;;;11.20;55.50;;;;;;5001214;28;20060;-41
2022/10/12 00:33:36;;;;;;;7.25;3.72;;;11.20;55.50;;;;;;5002784;28;20410;-45
2022/10/12 00:36:11;;;;;;;9.65;4.28;;;11.10;55.40;;;;;;5003315;28;20057;-42
2022/10/12 00:38:38;;;;;;;9.25;4.05;;;11.10;55.50;;;;;;5002927;28;20410;-41
2022/10/12 00:41:06;;;;;;;8.80;3.65;;;11.10;55.40;;;;;;5003080;28;20050;-44
2022/10/12 00:43:38;;;;;;;9.70;3.70;;;11.10;55.30;;;;;;5002530;28;20446;-40
2022/10/12 00:46:11;;;;;;;10.57;4.03;;;11.10;55.30;;;;;;5000696;28;20061;-42
2022/10/12 00:48:39;;;;;;;9.75;4.00;;;11.10;55.40;;;;;;5000579;28;20061;-47
2022/10/12 00:51:08;;;;;;;8.80;4.13;;;11.00;55.30;;;;;;5002860;28;20049;-42
2022/10/12 00:53:40;;;;;;;10.68;4.40;;;11.00;55.30;;;;;;5003921;28;20050;-43
2022/10/12 00:56:12;;;;;;;7.78;3.58;;;11.00;55.30;;;;;;5002174;28;20057;-43
2022/10/12 00:58:41;;;;;;;7.57;3.75;;;11.00;55.20;;;;;;5001200;28;20058;-41
2022/10/12 01:01:09;;;;;;;9.38;3.75;;;10.90;55.20;;;;;;4999807;28;20053;-43
2022/10/12 01:03:37;;;;;;;12.98;3.85;;;10.90;55.20;;;;;;5001253;28;20053;-40
2022/10/12 01:06:06;;;;;;;7.85;3.75;;;10.90;55.30;;;;;;5002033;28;20050;-45
2022/10/12 01:08:33;;;;;;;10.18;3.30;;;10.90;55.30;;;;;;4996900;28;20059;-44
2022/10/12 01:11:00;;;;;;;6.90;3.60;;;10.90;55.30;;;;;;5000611;28;20413;-42
2022/10/12 01:13:28;;;;;;;8.45;3.40;;;10.80;55.30;;;;;;5001932;28;20056;-42
2022/10/12 01:16:05;;;;;;;7.05;3.67;;;10.80;55.30;;;;;;4999544;28;20056;-41
2022/10/12 01:18:41;;;;;;;8.18;3.70;;;10.80;55.30;;;;;;5002498;28;20061;-40
2022/10/12 01:21:17;;;;;;;7.57;3.58;;;10.80;55.30;;;;;;5000583;28;20061;-40
2022/10/12 01:24:13;;;;;;;9.48;3.60;;;10.80;55.30;;;;;;5000352;28;20050;-40
2022/10/12 01:27:17;;;;;;;6.75;3.30;;;10.80;55.30;;;;;;5000167;28;20054;-41
2022/10/12 01:30:07;;;;;;;7.57;3.22;;;10.70;55.20;;;;;;4988785;28;20077;-44
2022/10/12 01:32:54;;;;;;;7.80;3.75;;;10.70;55.10;;;;;;5000670;28;20054;-42
2022/10/12 01:35:28;;;;;;;8.18;3.55;;;10.70;55.10;;;;;;5001905;28;20573;-41
2022/10/12 01:38:00;;;;;;;;;;;10.60;55.00;;;;;;5002456;28;20060;-41
2022/10/12 01:40:33;;;;;;;7.10;3.05;;;10.70;55.10;;;;;;5002257;28;20531;-42
2022/10/12 01:43:01;;;;;;;8.30;3.13;;;10.60;54.90;;;;;;5003125;28;20057;-40
2022/10/12 01:45:30;;;;;;;7.72;3.13;;;10.60;54.90;;;;;;5000794;28;20054;-43
2022/10/12 01:47:57;;;;;;;5.90;3.20;;;10.50;55.00;;;;;;4997634;28;20516;-39
2022/10/12 01:50:31;;;;;;;6.65;3.28;;;10.50;55.10;;;;;;4995893;28;20053;-39
2022/10/12 01:53:10;;;;;;;13.07;4.10;;;10.40;55.10;;;;;;5001390;28;20054;-41
2022/10/12 01:55:43;;;;;;;6.82;3.15;;;10.50;55.20;;;;;;4998682;28;20511;-40
2022/10/12 01:58:33;;;;;;;7.07;3.05;;;10.40;55.20;;;;;;5002135;28;20525;-40
2022/10/12 02:01:14;;;;;;;5.60;2.85;;;10.40;55.20;;;;;;5001821;28;20049;-41
2022/10/12 02:03:46;;;;;;;7.57;3.38;;;10.40;55.20;;;;;;5006058;28;20069;-40
2022/10/12 02:06:18;;;;;;;8.45;3.22;;;10.30;55.10;;;;;;5005591;28;20057;-40
2022/10/12 02:08:54;;;;;;;5.90;3.00;;;10.30;55.20;;;;;;5004540;28;20506;-45
2022/10/12 02:11:24;;;;;;;8.00;3.58;;;10.30;55.20;;;;;;5004153;28;20065;-43
2022/10/12 02:13:54;;;;;;;8.38;3.47;;;10.30;55.30;;;;;;5002882;28;20061;-44
2022/10/12 02:16:27;;;;;;;8.95;4.03;;;10.30;55.30;;;;;;5000673;28;20383;-46
2022/10/12 02:18:57;;;;;;;7.38;3.13;;;10.20;55.30;;;;;;5004695;28;20405;-45
2022/10/12 02:21:29;;;;;;;8.30;3.55;;;10.20;55.30;;;;;;5001905;28;20057;-42
2022/10/12 02:24:00;;;;;;;7.55;3.20;;;10.20;55.30;;;;;;5004170;28;20061;-42
2022/10/12 02:26:29;;;;;;;6.22;3.08;;;10.20;55.30;;;;;;5001855;28;20401;-41
2022/10/12 02:28:58;;;;;;;7.70;3.30;;;10.20;55.30;;;;;;5004845;28;20088;-40
2022/10/12 02:31:35;;;;;;;7.40;3.42;;;10.20;55.30;;;;;;4999118;28;20422;-43
2022/10/12 02:34:10;;;;;;;5.80;2.78;;;10.10;55.30;;;;;;5003867;28;20057;-40
2022/10/12 02:36:45;;;;;;;7.70;3.30;;;10.10;55.30;;;;;;5005701;28;20069;-45
2022/10/12 02:39:17;;;;;;;7.28;3.10;;;10.10;55.20;;;;;;5004174;28;20058;-45
2022/10/12 02:41:49;;;;;;;7.70;3.15;;;10.10;55.20;;;;;;5003048;28;20065;-44
2022/10/12 02:44:20;;;;;;;7.82;3.30;;;10.10;55.30;;;;;;5001767;28;20081;-43
2022/10/12 02:46:52;;;;;;;10.15;3.63;;;10.10;55.30;;;;;;5001261;28;20065;-41
2022/10/12 02:49:22;;;;;;;8.68;3.55;;;10.00;55.30;;;;;;5003593;28;20058;-45
2022/10/12 02:51:49;;;;;;;5.60;3.05;;;10.00;55.30;;;;;;5002643;28;20061;-39
2022/10/12 02:54:17;;;;;;;6.95;3.47;;;10.00;55.30;;;;;;5006111;28;20062;-49
2022/10/12 02:56:46;;;;;;;6.75;3.30;;;10.00;55.40;;;;;;5002566;28;20436;-47
2022/10/12 02:59:13;;;;;;;7.18;3.30;;;10.00;55.40;;;;;;5005769;28;20058;-50
2022/10/12 03:01:42;;;;;;;4.95;2.67;;;9.90;55.50;;;;;;5004582;28;20070;-51
2022/10/12 03:04:10;;;;;;;7.43;3.20;;;9.90;55.50;;;;;;5004809;28;20058;-49
2022/10/12 03:06:38;;;;;;;7.32;3.15;;;9.90;55.60;;;;;;5006867;28;20054;-51
2022/10/12 03:09:06;;;;;;;8.02;3.05;;;9.90;55.60;;;;;;5006643;28;20056;-51
2022/10/12 03:11:33;;;;;;;7.85;3.30;;;9.90;55.60;;;;;;5003028;28;20049;-48
2022/10/12 03:14:00;;;;;;;8.23;3.33;;;9.90;55.60;;;;;;5001951;28;20418;-49
2022/10/12 03:16:27;;;;;;;9.20;3.55;;;9.90;55.50;;;;;;5002936;28;20049;-48
2022/10/12 03:18:55;;;;;;;5.47;2.88;;;9.90;55.50;;;;;;5006763;28;20058;-49
2022/10/12 03:21:23;;;;;;;8.88;3.28;;;9.80;55.90;;;;;;5004374;28;20050;-48
2022/10/12 03:23:50;;;;;;;7.10;3.15;;;9.80;55.40;;;;;;5004179;28;20069;-47
2022/10/12 03:26:18;;;;;;;9.70;3.40;;;9.80;55.50;;;;;;5004255;28;20060;-49
2022/10/12 03:28:45;;;;;;;8.15;3.28;;;9.80;55.50;;;;;;4999232;28;20057;-50
2022/10/12 03:31:12;;;;;;;7.72;3.33;;;9.70;55.40;;;;;;4999317;28;20049;-48
2022/10/12 03:33:39;;;;;;;7.28;3.08;;;9.70;55.40;;;;;;5006748;28;20064;-50
2022/10/12 03:36:08;;;;;;;6.90;3.08;;;9.70;55.40;;;;;;5006977;28;20057;-49
2022/10/12 03:38:36;;;;;;;4.15;2.92;;;9.70;55.40;;;;;;5005740;28;20057;-49
2022/10/12 03:41:03;;;;;;;7.25;3.33;;;9.70;55.40;;;;;;5003520;28;20501;-50
2022/10/12 03:43:31;;;;;;;8.43;3.10;;;9.70;55.40;;;;;;4998199;28;20072;-44
2022/10/12 03:45:58;;;;;;;9.15;3.55;;;9.70;55.50;;;;;;4990898;28;20742;-45
2022/10/12 03:48:25;;;;;;;8.50;3.58;;;9.70;55.50;;;;;;4998306;28;20061;-50
2022/10/12 03:50:53;;;;;;;9.00;3.25;;;9.60;55.40;;;;;;4999705;28;20057;-49
2022/10/12 03:53:20;;;;;;;7.68;3.47;;;9.60;55.40;;;;;;5004092;28;20057;-44
2022/10/12 03:55:49;;;;;;;6.15;3.33;;;9.60;55.40;;;;;;5002950;28;20062;-50
2022/10/12 03:58:17;;;;;;;6.63;3.35;;;9.60;55.40;;;;;;5000120;28;20061;-49
2022/10/12 04:00:44;;;;;;;5.95;2.78;;;9.60;55.40;;;;;;5000867;28;20405;-46
2022/10/12 04:03:12;;;;;;;8.65;3.20;;;9.50;55.30;;;;;;5003231;28;20054;-48
2022/10/12 04:05:39;;;;;;;6.68;2.60;;;9.50;55.90;;;;;;5004275;28;20050;-50
2022/10/12 04:08:07;;;;;;;6.60;3.08;;;9.50;55.40;;;;;;5002643;28;20041;-49
2022/10/12 04:10:34;;;;;;;6.68;3.15;;;9.50;55.40;;;;;;5003961;28;20056;-49
2022/10/12 04:13:02;;;;;;;6.28;3.13;;;9.50;55.40;;;;;;5005271;28;20076;-49
2022/10/12 04:15:30;;;;;;;6.25;3.08;;;9.50;55.50;;;;;;5001399;28;20065;-49
2022/10/12 04:17:57;;;;;;;7.20;3.50;;;9.40;55.40;;;;;;5001647;28;20045;-52
2022/10/12 04:20:24;;;;;;;6.05;3.15;;;9.40;55.50;;;;;;5004439;28;20054;-50
2022/10/12 04:22:51;;;;;;;8.88;3.38;;;9.40;55.50;;;;;;5006557;28;20065;-49
2022/10/12 04:25:19;;;;;;;6.07;2.58;;;9.40;55.50;;;;;;4998494;28;20513;-49
2022/10/12 04:27:46;;;;;;;7.32;3.30;;;9.40;55.50;;;;;;4997526;28;20061;-51
2022/10/12 04:30:15;;;;;;;5.07;2.83;;;9.40;55.60;;;;;;5001081;28;20061;-48
2022/10/12 04:32:42;;;;;;;14.38;6.70;;;9.40;55.50;;;;;;4989678;28;20046;-50
2022/10/12 04:35:09;;;;;;;8.68;4.35;;;9.40;55.50;;;;;;4995287;28;20058;-52
2022/10/12 04:37:37;;;;;;;10.00;4.47;;;9.30;55.50;;;;;;5000576;28;20056;-51
2022/10/12 04:40:05;;;;;;;8.32;3.85;;;9.30;55.90;;;;;;5003131;28;20061;-49
2022/10/12 04:42:32;;;;;;;6.35;3.33;;;9.30;55.50;;;;;;5003897;28;20050;-49
2022/10/12 04:45:00;;;;;;;8.10;3.08;;;9.30;55.50;;;;;;4991644;28;20054;-48
2022/10/12 04:47:28;;;;;;;5.35;2.63;;;9.30;55.50;;;;;;4983578;28;20656;-48
2022/10/12 04:49:56;;;;;;;8.93;3.95;;;9.30;55.50;;;;;;4994351;28;20766;-51
2022/10/12 04:52:23;;;;;;;6.68;3.33;;;9.30;55.50;;;;;;4993238;28;20065;-50
2022/10/12 04:54:50;;;;;;;5.78;3.10;;;9.20;55.50;;;;;;4993143;28;20497;-51
2022/10/12 04:57:17;;;;;;;7.45;3.63;;;9.20;55.50;;;;;;4989818;28;20056;-49
2022/10/12 04:59:44;;;;;;;8.70;2.83;;;9.20;55.60;;;;;;5003510;28;20490;-51
2022/10/12 05:02:12;;;;;;;23.13;9.70;;;9.20;55.60;;;;;;4998630;28;20064;-52
2022/10/12 05:04:40;;;;;;;43.05;18.75;;;9.20;55.60;;;;;;5002310;28;20062;-51
2022/10/12 05:07:07;;;;;;;19.00;9.15;;;9.20;55.60;;;;;;5000939;28;20057;-51
2022/10/12 05:09:35;;;;;;;12.43;4.72;;;9.20;55.60;;;;;;4999079;28;20065;-50
2022/10/12 05:12:02;;;;;;;8.07;3.47;;;9.20;55.60;;;;;;4997682;28;20054;-50
2022/10/12 05:14:30;;;;;;;8.10;3.28;;;9.20;55.60;;;;;;5002140;28;20415;-49
2022/10/12 05:16:57;;;;;;;4.65;2.50;;;9.10;55.60;;;;;;5001399;28;20516;-50
2022/10/12 05:19:24;;;;;;;7.30;2.95;;;9.10;55.60;;;;;;5001574;28;20053;-49
2022/10/12 05:21:53;;;;;;;6.45;2.88;;;9.10;55.70;;;;;;4987039;28;20085;-50
2022/10/12 05:24:20;;;;;;;5.75;2.75;;;9.10;55.80;;;;;;4981132;28;20065;-50
2022/10/12 05:26:48;;;;;;;4.68;2.50;;;9.10;55.70;;;;;;4986903;28;20429;-49
2022/10/12 05:29:15;;;;;;;5.38;2.83;;;9.10;55.80;;;;;;4990083;28;20054;-52
2022/10/12 05:31:42;;;;;;;5.55;2.75;;;9.10;55.80;;;;;;4989788;28;20394;-48
2022/10/12 05:34:09;;;;;;;8.00;2.88;;;9.10;55.80;;;;;;4996148;28;20054;-47
2022/10/12 05:36:37;;;;;;;7.13;2.97;;;9.10;55.80;;;;;;5007885;28;20520;-47
2022/10/12 05:39:05;;;;;;;10.05;3.25;;;9.10;55.80;;;;;;5004377;28;20042;-48
2022/10/12 05:41:32;;;;;;;6.43;2.90;;;9.10;56.30;;;;;;5003135;28;20068;-49
2022/10/12 05:44:00;;;;;;;8.25;3.03;;;9.10;55.80;;;;;;5002029;28;20695;-45
2022/10/12 05:46:28;;;;;;;8.32;3.60;;;9.00;55.80;;;;;;5005137;28;20049;-49
2022/10/12 05:48:56;;;;;;;6.32;2.95;;;9.00;55.80;;;;;;5003007;28;20050;-51
2022/10/12 05:51:24;;;;;;;6.00;2.85;;;9.00;55.80;;;;;;5006785;28;20054;-51
2022/10/12 05:53:51;;;;;;;5.18;2.88;;;9.10;55.90;;;;;;5003665;28;20053;-49
2022/10/12 05:56:21;;;;;;;9.25;3.00;;;9.00;55.80;;;;;;5003862;28;20058;-51
2022/10/12 05:58:48;;;;;;;7.55;3.42;;;9.00;55.80;;;;;;4998792;28;20077;-50
2022/10/12 06:01:16;;;;;;;6.70;3.30;;;9.00;55.70;;;;;;5001725;28;20050;-51
2022/10/12 06:03:43;;;;;;;7.28;3.13;;;9.00;55.70;;;;;;4994976;28;20056;-48
2022/10/12 06:06:11;;;;;;;9.15;3.95;;;9.00;55.70;;;;;;5003518;28;20317;-49
2022/10/12 06:08:38;;;;;;;4.68;2.92;;;8.90;55.60;;;;;;4993904;28;20054;-49
2022/10/12 06:11:06;;;;;;;8.35;3.45;;;8.90;55.70;;;;;;4987434;28;20060;-50
2022/10/12 06:13:34;;;;;;;5.15;3.10;;;8.90;55.70;;;;;;4997394;28;20049;-51
2022/10/12 06:16:02;;;;;;;11.10;3.42;;;8.90;55.70;;;;;;5003750;28;20501;-46
2022/10/12 06:18:29;;;;;;;5.82;3.03;;;8.90;55.70;;;;;;5006320;28;20057;-49
2022/10/12 06:20:56;;;;;;;9.45;3.00;;;8.90;55.70;;;;;;5005127;28;20059;-44
2022/10/12 06:23:23;;;;;;;7.72;3.22;;;8.80;55.70;;;;;;5005930;28;20054;-48
2022/10/12 06:25:51;;;;;;;14.32;3.95;;;8.80;55.80;;;;;;5007195;28;20060;-46
2022/10/12 06:28:20;;;;;;;7.28;3.65;;;8.80;55.90;;;;;;5004661;28;20413;-50
2022/10/12 06:30:53;;;;;;;6.38;3.15;;;8.80;55.90;;;;;;5002668;28;20046;-49
2022/10/12 06:33:20;;;;;;;5.78;3.55;;;8.90;56.00;;;;;;5002582;28;20057;-48
2022/10/12 06:35:47;;;;;;;6.53;2.92;;;8.80;56.00;;;;;;5003643;28;20053;-50
2022/10/12 06:38:15;;;;;;;7.28;3.20;;;8.80;56.10;;;;;;5003018;28;20065;-50
2022/10/12 06:40:42;;;;;;;10.02;3.25;;;8.80;56.10;;;;;;5001516;28;20046;-50
2022/10/12 06:43:10;;;;;;;7.05;2.83;;;8.80;56.20;;;;;;5004143;28;20054;-47
2022/10/12 06:45:39;;;;;;;6.15;2.97;;;8.80;56.30;;;;;;5006452;28;20390;-49
2022/10/12 06:48:08;;;;;;;6.15;2.83;;;8.80;56.30;;;;;;5006438;28;20050;-47
2022/10/12 06:50:36;;;;;;;6.78;3.05;;;8.80;56.40;;;;;;4998950;28;20999;-45
2022/10/12 06:53:03;;;;;;;7.65;3.30;;;8.80;56.50;;;;;;5004264;28;20060;-48
2022/10/12 06:55:30;;;;;;;4.78;2.63;;;8.90;56.60;;;;;;5006038;28;20077;-51
2022/10/12 06:57:58;;;;;;;9.57;3.47;;;8.90;57.10;;;;;;4999072;28;20070;-50
2022/10/12 07:00:27;;;;;;;8.63;3.10;;;8.90;56.70;;;;;;5000525;28;20054;-50
2022/10/12 07:02:54;;;;;;;8.85;3.30;;;8.90;56.80;;;;;;5004295;28;20485;-51
2022/10/12 07:05:23;;;;;;;10.23;3.80;;;9.00;56.90;;;;;;4999838;28;20072;-49
2022/10/12 07:07:51;;;;;;;7.72;3.25;;;9.00;57.10;;;;;;4996855;28;20052;-48
2022/10/12 07:10:18;;;;;;;10.68;3.08;;;9.00;57.00;;;;;;5003151;28;20054;-48
2022/10/12 07:12:45;;;;;;;7.70;3.85;;;9.00;57.10;;;;;;4993930;28;20061;-51
2022/10/12 07:15:13;;;;;;;10.30;3.92;;;9.10;57.10;;;;;;5005657;28;20061;-51
2022/10/12 07:17:40;;;;;;;8.55;3.15;;;9.10;57.20;;;;;;5005572;28;20060;-47
2022/10/12 07:20:08;;;;;;;8.82;3.47;;;9.10;57.30;;;;;;5006623;28;20080;-49
2022/10/12 07:22:36;;;;;;;5.03;3.08;;;9.10;57.40;;;;;;4991699;28;20064;-50
2022/10/12 07:25:04;;;;;;;8.77;3.38;;;9.20;57.50;;;;;;4995631;28;20057;-45
2022/10/12 07:27:31;;;;;;;6.93;3.00;;;9.20;57.60;;;;;;4996070;28;20050;-49
2022/10/12 07:29:59;;;;;;;5.97;3.20;;;9.20;57.60;;;;;;4997022;28;20114;-49
2022/10/12 07:32:26;;;;;;;6.00;3.10;;;9.30;57.70;;;;;;4996131;28;20054;-51
2022/10/12 07:34:53;;;;;;;5.00;2.92;;;9.30;57.90;;;;;;4997312;28;20469;-46
2022/10/12 07:37:20;;;;;;;12.15;3.50;;;9.40;58.00;;;;;;4995718;28;20057;-48
2022/10/12 07:39:49;;;;;;;10.63;3.90;;;9.40;58.20;;;;;;4994648;28;20065;-50
2022/10/12 07:42:16;;;;;;;5.50;2.80;;;9.40;58.40;;;;;;4994290;28;20058;-49
2022/10/12 07:44:43;;;;;;;6.55;2.90;;;9.50;58.50;;;;;;4994960;28;20061;-51
2022/10/12 07:47:10;;;;;;;6.55;3.40;;;9.50;58.50;;;;;;4994199;28;20064;-47
2022/10/12 07:49:38;;;;;;;11.25;4.10;;;9.60;58.60;;;;;;4993064;28;20053;-47
2022/10/12 07:52:05;;;;;;;12.65;4.63;;;9.60;58.70;;;;;;4995277;28;20046;-48
2022/10/12 07:54:32;;;;;;;7.95;4.05;;;9.70;58.90;;;;;;4998310;28;20065;-45
2022/10/12 07:57:01;;;;;;;7.85;3.78;;;9.80;59.00;;;;;;4993961;28;20379;-50
2022/10/12 07:59:28;;;;;;;9.60;3.78;;;9.80;59.00;;;;;;4995008;28;20057;-47
2022/10/12 08:01:55;;;;;;;7.45;3.20;;;9.90;59.00;;;;;;4992413;28;20061;-49
2022/10/12 08:04:22;;;;;;;4.97;2.85;;;10.00;59.10;;;;;;4992326;28;20054;-48
2022/10/12 08:06:50;;;;;;;7.28;2.72;;;10.00;59.10;;;;;;4993638;28;20494;-51
2022/10/12 08:09:17;;;;;;;7.97;3.40;;;10.10;59.20;;;;;;4992230;28;20053;-49
2022/10/12 08:11:44;;;;;;;6.50;3.10;;;10.20;59.20;;;;;;5000781;28;20053;-49
2022/10/12 08:14:14;;;;;;;225.55;14.80;;;10.20;59.20;;;;;;5003686;28;20056;-52
2022/10/12 08:16:42;;;;;;;21.23;4.75;;;10.30;59.20;;;;;;5002634;28;20671;-52
2022/10/12 08:19:09;;;;;;;19.15;3.10;;;10.40;59.20;;;;;;5007303;28;20061;-46
2022/10/12 08:21:36;;;;;;;7.43;3.08;;;10.40;59.20;;;;;;5014881;28;20251;-46
2022/10/12 08:24:04;;;;;;;7.15;3.30;;;10.50;59.30;;;;;;5013349;28;20057;-52
2022/10/12 08:26:32;;;;;;;8.73;3.10;;;10.50;59.40;;;;;;5004294;28;20062;-49
2022/10/12 08:28:59;;;;;;;9.82;3.13;;;10.60;59.40;;;;;;5012914;28;20077;-50
2022/10/12 08:31:27;;;;;;;7.70;2.80;;;10.60;59.40;;;;;;5008765;28;20406;-51
2022/10/12 08:33:56;;;;;;;10.82;3.97;;;10.70;59.40;;;;;;5012237;28;20061;-49
2022/10/12 08:36:23;;;;;;;7.20;2.80;;;10.70;59.40;;;;;;5014369;28;20512;-51
2022/10/12 08:38:53;;;;;;;11.57;3.30;;;10.80;59.40;;;;;;5015107;28;20061;-50
2022/10/12 08:41:35;;;;;;;11.75;3.58;;;10.90;59.50;;;;;;5006000;28;20053;-52
2022/10/12 08:44:24;;;;;;;10.60;3.50;;;11.00;59.50;;;;;;5008075;28;20057;-47
2022/10/12 08:46:57;;;;;;;6.82;2.67;;;11.00;59.60;;;;;;5006434;28;20057;-51
2022/10/12 08:49:28;;;;;;;5.05;2.67;;;11.10;59.90;;;;;;5007569;28;20137;-51
2022/10/12 08:51:58;;;;;;;6.97;2.72;;;11.10;59.50;;;;;;4998968;28;20060;-50
2022/10/12 08:54:31;;;;;;;5.32;2.83;;;11.20;59.50;;;;;;5002069;28;20058;-50
2022/10/12 08:56:59;;;;;;;7.15;2.85;;;11.30;59.50;;;;;;4999422;28;20151;-52
2022/10/12 08:59:28;;;;;;;12.38;3.13;;;11.40;59.50;;;;;;4999224;28;20058;-49
2022/10/12 09:02:07;;;;;;;13.75;3.97;;;11.40;59.50;;;;;;4998004;28;20061;-50
2022/10/12 09:04:46;;;;;;;8.02;3.00;;;11.50;59.70;;;;;;5000005;28;20065;-51
2022/10/12 09:07:18;;;;;;;8.90;2.58;;;11.60;59.80;;;;;;5002065;28;20062;-48
2022/10/12 09:10:00;;;;;;;9.52;2.95;;;11.70;59.80;;;;;;5004742;28;20057;-50
2022/10/12 09:12:38;;;;;;;8.48;3.10;;;11.70;60.60;;;;;;5005533;28;20057;-51
2022/10/12 09:15:13;;;;;;;6.38;2.35;;;11.80;59.90;;;;;;5008958;28;20900;-48
2022/10/12 09:17:46;;;;;;;6.88;2.97;;;11.90;60.10;;;;;;5004333;28;20057;-50
2022/10/12 09:20:18;;;;;;;8.25;2.50;;;12.00;60.20;;;;;;5003028;28;20050;-48
2022/10/12 09:22:49;;;;;;;6.00;2.33;;;12.10;60.20;;;;;;5002855;28;20056;-49
2022/10/12 09:25:17;;;;;;;6.85;2.25;;;12.20;60.30;;;;;;5009649;28;20100;-49
2022/10/12 09:27:46;;;;;;;8.55;3.05;;;12.30;60.40;;;;;;5001901;28;20061;-50
2022/10/12 09:30:15;;;;;;;8.63;2.47;;;12.40;60.30;;;;;;5003848;28;20073;-48
2022/10/12 09:33:05;;;;;;;6.97;2.72;;;12.50;60.10;;;;;;5008138;28;20053;-50
2022/10/12 09:35:33;;;;;;;6.80;2.40;;;12.60;59.90;;;;;;5003733;28;20049;-48
2022/10/12 09:38:01;;;;;;;7.70;2.05;;;12.70;59.70;;;;;;5012659;28;20046;-51
2022/10/12 09:40:31;;;;;;;7.47;2.78;;;12.80;59.50;;;;;;5009869;28;20049;-48
2022/10/12 09:43:00;;;;;;;4.57;1.95;;;12.90;59.40;;;;;;5008947;28;20061;-47
2022/10/12 09:45:31;;;;;;;8.63;2.30;;;13.00;59.30;;;;;;5009118;28;20058;-49
2022/10/12 09:48:23;;;;;;;5.63;2.00;;;13.00;59.10;;;;;;5011130;28;20514;-52
2022/10/12 09:50:54;;;;;;;7.80;2.17;;;13.10;58.80;;;;;;5012962;28;20053;-51
2022/10/12 09:53:31;;;;;;;15.48;2.47;;;13.20;58.70;;;;;;5008455;28;20058;-52
2022/10/12 09:56:04;;;;;;;8.95;2.28;;;13.30;58.60;;;;;;5013754;28;20060;-52
2022/10/12 09:58:37;;;;;;;4.25;1.98;;;13.30;58.60;;;;;;5011930;28;20054;-50
2022/10/12 10:01:18;;;;;;;7.90;2.05;;;13.40;58.40;;;;;;5009003;28;20054;-48
2022/10/12 10:03:50;;;;;;;4.93;1.95;;;13.40;58.30;;;;;;5013583;28;20502;-48
2022/10/12 10:06:24;;;;;;;11.98;2.22;;;13.50;58.20;;;;;;5011069;28;20071;-48
2022/10/12 10:08:51;;;;;;;8.48;1.90;;;13.60;58.20;;;;;;5008170;28;20054;-45
2022/10/12 10:11:22;;;;;;;5.85;2.13;;;13.70;58.10;;;;;;5009294;28;20050;-48
2022/10/12 10:13:52;;;;;;;5.22;1.90;;;13.70;58.10;;;;;;5008972;28;20061;-51
2022/10/12 10:16:22;;;;;;;7.05;2.28;;;13.80;58.10;;;;;;5009215;28;20054;-49
2022/10/12 10:18:56;;;;;;;8.77;2.60;;;13.80;58.10;;;;;;5011495;28;20410;-47
2022/10/12 10:21:30;;;;;;;8.07;2.05;;;13.90;58.20;;;;;;5009111;28;20046;-51
2022/10/12 10:23:58;;;;;;;3.97;1.83;;;14.00;58.30;;;;;;5015144;28;20065;-52
2022/10/12 10:26:27;;;;;;;8.70;2.20;;;14.00;58.20;;;;;;5012292;28;20057;-47
2022/10/12 10:29:14;;;;;;;6.68;1.83;;;14.20;58.20;;;;;;5012087;28;20088;-51
2022/10/12 10:31:41;;;;;;;9.00;2.17;;;14.20;58.20;;;;;;5011061;28;20054;-50
2022/10/12 10:34:18;;;;;;;8.43;2.25;;;14.30;57.80;;;;;;5012506;28;20054;-50
2022/10/12 10:36:48;;;;;;;4.75;1.67;;;14.40;57.70;;;;;;5013459;28;20058;-52
2022/10/12 10:39:21;;;;;;;5.80;2.72;;;14.50;57.80;;;;;;5011218;28;20485;-53
2022/10/12 10:41:50;;;;;;;3.43;1.60;;;14.50;57.80;;;;;;5005117;28;20065;-52
2022/10/12 10:44:27;;;;;;;9.00;2.15;;;14.60;57.90;;;;;;5004831;28;20500;-52
2022/10/12 10:46:56;;;;;;;9.95;2.80;;;14.70;57.70;;;;;;5012589;28;20060;-47
2022/10/12 10:49:29;;;;;;;12.88;2.30;;;14.80;57.70;;;;;;5015058;28;20394;-51
2022/10/12 10:51:59;;;;;;;6.20;1.90;;;14.80;57.30;;;;;;5004717;28;20054;-52
2022/10/12 10:54:28;;;;;;;5.38;1.75;;;14.90;57.50;;;;;;5007204;28;20500;-51
2022/10/12 10:57:00;;;;;;;8.90;2.47;;;15.00;57.70;;;;;;5006836;28;20054;-52
2022/10/12 10:59:38;;;;;;;9.55;2.90;;;15.10;56.90;;;;;;5011216;28;20053;-52
2022/10/12 11:02:16;;;;;;;6.38;1.98;;;15.20;56.40;;;;;;5005538;28;20087;-47
2022/10/12 11:04:51;;;;;;;8.70;2.20;;;15.30;55.90;;;;;;5013210;28;20057;-51
2022/10/12 11:07:25;;;;;;;5.57;2.10;;;15.40;56.30;;;;;;5013173;28;20477;-53
2022/10/12 11:09:54;;;;;;;;;;;15.50;56.40;;;;;;5011329;28;20072;-51
2022/10/12 11:12:27;;;;;;;10.88;2.53;;;15.60;56.50;;;;;;5007952;28;19928;-52
2022/10/12 11:15:00;;;;;;;12.30;2.85;;;15.70;55.50;;;;;;5011183;28;20053;-50
2022/10/12 11:17:31;;;;;;;15.38;2.40;;;15.80;55.40;;;;;;5012509;28;20053;-51
2022/10/12 11:20:11;;;;;;;9.68;2.60;;;15.80;55.20;;;;;;5010023;28;20053;-50
2022/10/12 11:22:48;;;;;;;10.75;2.40;;;15.90;54.90;;;;;;5012731;28;20405;-48
2022/10/12 11:25:24;;;;;;;8.57;2.85;;;16.00;54.80;;;;;;5013011;28;20058;-48
2022/10/12 11:27:51;;;;;;;10.73;2.45;;;16.00;54.20;;;;;;5009097;28;20053;-47
2022/10/12 11:30:22;;;;;;;13.48;2.45;;;16.10;54.40;;;;;;5009509;28;20057;-51
2022/10/12 11:32:54;;;;;;;9.68;2.92;;;16.10;54.60;;;;;;5009025;28;20068;-52
2022/10/12 11:35:27;;;;;;;6.32;2.20;;;16.20;54.90;;;;;;5011075;28;20054;-52
2022/10/12 11:37:59;;;;;;;9.17;2.43;;;16.20;54.70;;;;;;5010202;28;20058;-51
2022/10/12 11:40:30;;;;;;;8.52;2.30;;;16.30;54.90;;;;;;5009206;28;20054;-57
2022/10/12 11:42:59;;;;;;;17.42;2.90;;;16.40;55.00;;;;;;5009501;28;20061;-47
2022/10/12 11:45:30;;;;;;;9.88;2.92;;;16.40;54.30;;;;;;5006634;28;20573;-51
2022/10/12 11:48:01;;;;;;;11.13;2.97;;;16.50;53.80;;;;;;5011129;28;20061;-50
2022/10/12 11:50:34;;;;;;;14.23;2.83;;;16.60;53.30;;;;;;5010841;28;20045;-52
2022/10/12 11:53:05;;;;;;;7.22;2.00;;;16.60;53.00;;;;;;5006180;28;20061;-49
2022/10/12 11:55:42;;;;;;;11.55;2.70;;;16.60;53.40;;;;;;5007579;28;20061;-49
2022/10/12 11:58:17;;;;;;;6.78;2.72;;;16.70;53.20;;;;;;5007024;28;20191;-48
2022/10/12 12:01:03;;;;;;;14.82;3.35;;;16.80;53.30;;;;;;5004532;28;20046;-52
2022/10/12 12:03:38;;;;;;;7.03;2.58;;;16.80;53.10;;;;;;5011201;28;21015;-51
2022/10/12 12:06:49;;;;;;;11.02;2.95;;;16.90;53.30;;;;;;5009520;28;20421;-48
2022/10/12 12:09:29;;;;;;;9.07;2.22;;;16.90;52.70;;;;;;5008090;28;20057;-52
2022/10/12 12:12:12;;;;;;;24.50;3.38;;;17.00;52.80;;;;;;5002710;28;20061;-50
2022/10/12 12:15:27;;;;;;;10.10;2.70;;;17.00;52.10;;;;;;5008865;28;20053;-51
2022/10/12 12:18:12;;;;;;;10.88;2.78;;;17.10;52.10;;;;;;5009905;28;20045;-50
2022/10/12 12:20:54;;;;;;;;;;;17.10;51.90;;;;;;5003993;28;20056;-50
2022/10/12 12:23:26;;;;;;;7.93;2.72;;;17.10;51.90;;;;;;5006079;28;19952;-52
2022/10/12 12:26:06;;;;;;;13.77;3.05;;;17.20;51.80;;;;;;5007290;28;20054;-52
2022/10/12 12:28:35;;;;;;;7.10;2.63;;;17.20;52.10;;;;;;5007224;28;20060;-52
2022/10/12 12:31:07;;;;;;;13.93;3.08;;;17.20;52.30;;;;;;5005444;28;20054;-52
2022/10/12 12:33:40;;;;;;;10.63;3.45;;;17.30;52.10;;;;;;5008899;28;20065;-50
2022/10/12 12:36:11;;;;;;;13.67;3.53;;;17.30;51.60;;;;;;5006621;28;20058;-51
2022/10/12 12:38:46;;;;;;;16.67;3.97;;;17.30;51.10;;;;;;5004368;28;20054;-52
2022/10/12 12:41:15;;;;;;;10.43;3.00;;;17.30;51.50;;;;;;5004946;28;20482;-51
2022/10/12 12:44:01;;;;;;;8.88;2.88;;;17.30;51.60;;;;;;5002212;28;20373;-48
2022/10/12 12:47:07;;;;;;;9.48;3.35;;;17.40;51.70;;;;;;5005022;28;20057;-51
2022/10/12 12:49:44;;;;;;;7.18;2.97;;;17.50;52.00;;;;;;5003308;28;20056;-46
2022/10/12 12:52:16;;;;;;;11.95;3.50;;;17.50;52.30;;;;;;5001338;28;20057;-52
2022/10/12 12:55:10;;;;;;;7.85;2.90;;;17.50;52.40;;;;;;5005090;28;20065;-48
2022/10/12 12:57:55;;;;;;;9.23;3.20;;;17.50;52.10;;;;;;4987814;28;20061;-48
2022/10/12 13:00:23;;;;;;;6.57;2.80;;;17.60;52.10;;;;;;5002455;28;20509;-48
2022/10/12 13:03:10;;;;;;;9.57;3.13;;;17.60;52.20;;;;;;5005980;28;20053;-52
2022/10/12 13:06:17;;;;;;;7.95;3.00;;;17.60;52.00;;;;;;5003135;28;20508;-51
2022/10/12 13:09:04;;;;;;;8.55;2.92;;;17.70;51.90;;;;;;5004432;28;20065;-49
2022/10/12 13:11:53;;;;;;;7.28;2.83;;;17.70;51.90;;;;;;5002984;28;20054;-49